Time;durP1;ratioP1;P1;durP2;ratioP2;P2;SDS_P1;SDS_P2;PMS_P1;PMS_P2;Temp;Humidity;BMP_temperature;BMP_pressure;BME280_temperature;BME280_humidity;BME280_pressure;Samples;Min_cycle;Max_cycle;Signal;HPM_P1;HPM_P2
2024/01/08 00:00:50;;;;;;;12.40;8.30;;;-3.20;99.90;;;;;;5009219;28;20039;-78
2024/01/08 00:03:39;;;;;;;12.18;7.93;;;-3.20;99.90;;;;;;5009247;28;20042;-77
2024/01/08 00:06:27;;;;;;;13.13;9.35;;;-3.20;86.70;;;;;;4997022;28;20128;-80
2024/01/08 00:09:17;;;;;;;12.90;8.18;;;-3.20;90.10;;;;;;4982986;28;20559;-79
2024/01/08 00:12:09;;;;;;;10.68;7.43;;;-3.30;21.30;;;;;;4984921;28;20547;-80
2024/01/08 00:14:56;;;;;;;14.73;8.32;;;-3.30;1.00;;;;;;4996072;28;20034;-81
2024/01/08 00:17:49;;;;;;;10.55;7.53;;;-3.30;1.00;;;;;;4984424;28;20174;-79
2024/01/08 00:20:37;;;;;;;13.55;7.55;;;-3.30;99.90;;;;;;4981100;28;20042;-79
2024/01/08 00:23:27;;;;;;;9.93;6.78;;;-3.20;99.90;;;;;;4969921;28;20062;-79
2024/01/08 00:26:15;;;;;;;11.52;6.75;;;-3.20;99.90;;;;;;4986420;28;20046;-77
2024/01/08 00:29:04;;;;;;;9.13;6.55;;;-3.20;99.90;;;;;;4966304;28;20062;-79
2024/01/08 00:31:52;;;;;;;12.80;6.45;;;-3.30;1.00;;;;;;4968545;28;20046;-79
2024/01/08 00:34:42;;;;;;;8.20;6.10;;;-3.30;99.90;;;;;;4982009;28;20073;-79
2024/01/08 00:37:32;;;;;;;9.52;6.38;;;-3.20;1.00;;;;;;4975097;28;20476;-78
2024/01/08 00:40:22;;;;;;;9.20;5.57;;;-3.30;99.90;;;;;;4981984;28;20547;-79
2024/01/08 00:43:10;;;;;;;7.47;5.43;;;-3.30;99.90;;;;;;4986359;28;20047;-78
2024/01/08 00:45:57;;;;;;;6.95;5.97;;;-3.30;99.90;;;;;;4982415;28;20049;-77
2024/01/08 00:48:45;;;;;;;6.85;5.38;;;-3.30;1.00;;;;;;4978403;28;20050;-78
2024/01/08 00:51:32;;;;;;;7.82;5.75;;;-3.30;1.00;;;;;;4990376;28;20046;-80
2024/01/08 00:54:20;;;;;;;7.88;5.68;;;-3.30;1.00;;;;;;4979026;28;20193;-78
2024/01/08 00:57:09;;;;;;;7.70;5.57;;;-3.30;99.90;;;;;;4989068;28;20140;-80
2024/01/08 00:59:56;;;;;;;7.55;5.68;;;-3.30;99.90;;;;;;4981203;28;20038;-79
2024/01/08 01:02:47;;;;;;;7.22;5.82;;;-3.30;99.90;;;;;;4981012;28;20049;-79
2024/01/08 01:05:35;;;;;;;7.32;5.32;;;-3.30;99.90;;;;;;4976542;28;20053;-76
2024/01/08 01:08:25;;;;;;;10.00;6.03;;;-3.30;1.00;;;;;;4994745;28;20050;-78
2024/01/08 01:11:15;;;;;;;8.85;6.13;;;-3.30;14.30;;;;;;4981879;28;20053;-78
2024/01/08 01:14:03;;;;;;;9.05;6.10;;;-3.30;1.00;;;;;;4984749;28;20070;-79
2024/01/08 01:16:51;;;;;;;6.63;5.55;;;-3.30;1.00;;;;;;4972489;28;20558;-79
2024/01/08 01:19:40;;;;;;;8.25;6.30;;;-3.20;1.00;;;;;;4985780;28;20521;-81
2024/01/08 01:22:28;;;;;;;9.35;5.80;;;-3.30;99.90;;;;;;4979031;28;20047;-79
2024/01/08 01:25:15;;;;;;;7.60;5.55;;;-3.30;99.90;;;;;;4980912;28;20042;-81
2024/01/08 01:28:03;;;;;;;8.27;5.88;;;-3.30;99.90;;;;;;4981838;28;20090;-79
2024/01/08 01:30:52;;;;;;;11.07;6.60;;;-3.30;99.90;;;;;;4964474;28;20053;-78
2024/01/08 01:33:43;;;;;;;7.50;5.80;;;-3.30;99.90;;;;;;4988288;28;20201;-80
2024/01/08 01:36:35;;;;;;;11.13;7.63;;;-3.30;99.90;;;;;;4982312;28;20056;-79
2024/01/08 01:39:22;;;;;;;8.82;6.07;;;-3.30;99.90;;;;;;4990070;28;20050;-78
2024/01/08 01:42:10;;;;;;;7.88;6.55;;;-3.20;99.90;;;;;;4987996;28;20193;-80
2024/01/08 01:44:57;;;;;;;8.27;5.90;;;-3.20;28.10;;;;;;4982596;28;20046;-80
2024/01/08 01:47:46;;;;;;;9.35;6.10;;;-3.20;48.50;;;;;;4961778;28;20058;-79
2024/01/08 01:50:36;;;;;;;9.20;6.63;;;-3.30;1.00;;;;;;4967033;28;20105;-81
2024/01/08 01:53:24;;;;;;;8.65;6.43;;;-3.30;1.00;;;;;;4980590;28;20038;-80
2024/01/08 01:56:13;;;;;;;7.85;6.45;;;-3.30;1.00;;;;;;4976977;28;20696;-79
2024/01/08 01:59:04;;;;;;;8.32;6.00;;;-3.30;1.00;;;;;;4984477;28;20058;-80
2024/01/08 02:01:51;;;;;;;7.97;6.30;;;-3.30;1.00;;;;;;4968596;28;20081;-80
2024/01/08 02:04:42;;;;;;;6.55;5.72;;;-3.30;1.00;;;;;;4982940;28;20049;-80
2024/01/08 02:07:34;;;;;;;7.72;6.25;;;-3.30;99.90;;;;;;4982817;28;20061;-79
2024/01/08 02:10:22;;;;;;;10.88;5.75;;;-3.30;99.90;;;;;;4983207;28;20364;-80
2024/01/08 02:13:11;;;;;;;8.50;6.03;;;-3.30;1.00;;;;;;4982126;28;20043;-79
2024/01/08 02:15:58;;;;;;;8.80;6.13;;;-3.30;99.90;;;;;;4989470;28;20042;-78
2024/01/08 02:18:46;;;;;;;7.38;5.95;;;-3.30;99.90;;;;;;4999537;28;20054;-79
2024/01/08 02:21:38;;;;;;;10.18;6.38;;;-3.30;99.90;;;;;;4993726;28;20096;-75
2024/01/08 02:24:29;;;;;;;9.20;6.70;;;-3.30;99.90;;;;;;4988494;28;20080;-77
2024/01/08 02:27:16;;;;;;;11.40;6.22;;;-3.30;99.90;;;;;;5014566;28;20041;-76
2024/01/08 02:30:07;;;;;;;8.40;6.10;;;-3.30;99.90;;;;;;5002402;28;20048;-80
2024/01/08 02:32:54;;;;;;;6.40;5.72;;;-3.30;99.90;;;;;;4994708;28;20045;-78
2024/01/08 02:35:41;;;;;;;8.80;5.95;;;-3.30;99.90;;;;;;4987521;28;20046;-82
2024/01/08 02:38:29;;;;;;;6.88;5.72;;;-3.30;99.90;;;;;;4973704;28;20042;-81
2024/01/08 02:41:16;;;;;;;8.75;6.15;;;-3.30;99.90;;;;;;4986241;28;20123;-80
2024/01/08 02:44:04;;;;;;;8.98;5.95;;;-3.30;99.90;;;;;;4989593;28;20053;-80
2024/01/08 02:46:53;;;;;;;6.75;5.47;;;-3.30;99.90;;;;;;4985980;28;20054;-81
2024/01/08 02:49:43;;;;;;;7.07;6.03;;;-3.30;99.90;;;;;;4982353;28;20098;-80
2024/01/08 02:52:31;;;;;;;8.38;6.28;;;-3.30;99.90;;;;;;4983671;28;20042;-81
2024/01/08 02:55:19;;;;;;;6.45;5.55;;;-3.30;99.90;;;;;;4988941;28;20109;-79
2024/01/08 02:58:08;;;;;;;7.70;5.90;;;-3.20;99.90;;;;;;4993377;28;20047;-82
2024/01/08 03:00:59;;;;;;;10.48;5.93;;;-3.30;99.90;;;;;;4997667;28;20057;-82
2024/01/08 03:03:47;;;;;;;8.00;5.93;;;-3.20;99.90;;;;;;4991482;28;20254;-81
2024/01/08 03:06:37;;;;;;;7.70;5.65;;;-3.20;99.90;;;;;;4988268;28;20073;-76
2024/01/08 03:09:25;;;;;;;9.32;5.78;;;-3.30;99.40;;;;;;5004818;28;20048;-79
2024/01/08 03:12:13;;;;;;;8.15;6.22;;;-3.20;99.90;;;;;;4994536;28;20053;-81
2024/01/08 03:15:01;;;;;;;7.78;6.45;;;-3.20;99.90;;;;;;4992562;28;20101;-81
2024/01/08 03:17:53;;;;;;;;;;;-3.20;99.90;;;;;;4987966;28;20103;-80
2024/01/08 03:20:41;;;;;;;9.57;6.63;;;-3.20;99.90;;;;;;4987123;28;19936;-81
2024/01/08 03:23:30;;;;;;;10.27;6.30;;;-3.30;99.90;;;;;;4985489;28;20042;-79
2024/01/08 03:26:20;;;;;;;9.52;6.45;;;-3.20;99.90;;;;;;4991609;28;20048;-80
2024/01/08 03:29:09;;;;;;;9.55;7.20;;;-3.20;99.90;;;;;;4985354;28;20046;-79
2024/01/08 03:31:56;;;;;;;9.57;6.78;;;-3.20;91.90;;;;;;4992697;28;20068;-80
2024/01/08 03:34:46;;;;;;;10.63;6.72;;;-3.20;98.30;;;;;;4985535;28;20042;-78
2024/01/08 03:37:35;;;;;;;12.05;6.93;;;-3.20;86.60;;;;;;4984877;28;20116;-81
2024/01/08 03:40:23;;;;;;;10.20;7.20;;;-3.20;93.70;;;;;;4984573;28;20460;-78
2024/01/08 03:43:12;;;;;;;9.80;6.53;;;-3.20;64.80;;;;;;4993596;28;20054;-75
2024/01/08 03:46:03;;;;;;;8.85;6.68;;;-3.20;11.10;;;;;;4988388;28;20038;-76
2024/01/08 03:48:53;;;;;;;8.95;6.45;;;-3.20;32.00;;;;;;4983097;28;20537;-81
2024/01/08 03:51:45;;;;;;;10.45;6.57;;;-3.20;30.20;;;;;;4994005;28;20050;-77
2024/01/08 03:54:33;;;;;;;8.70;6.25;;;-3.20;1.00;;;;;;4980499;28;20069;-78
2024/01/08 03:57:21;;;;;;;7.07;5.30;;;-3.20;1.00;;;;;;5002098;28;20042;-79
2024/01/08 04:00:09;;;;;;;7.50;6.00;;;-3.20;1.00;;;;;;4993862;28;20042;-80
2024/01/08 04:02:56;;;;;;;9.27;5.38;;;-3.20;1.00;;;;;;4981723;28;20129;-81
2024/01/08 04:05:44;;;;;;;9.48;5.45;;;-3.20;99.90;;;;;;4988804;28;20047;-81
2024/01/08 04:08:32;;;;;;;7.05;5.57;;;-3.30;99.90;;;;;;4986169;28;20799;-80
2024/01/08 04:11:19;;;;;;;6.85;5.10;;;-3.20;99.90;;;;;;4980108;28;20054;-79
2024/01/08 04:14:07;;;;;;;7.47;5.30;;;-3.20;99.90;;;;;;4974263;28;20042;-81
2024/01/08 04:16:54;;;;;;;11.77;5.70;;;-3.20;99.90;;;;;;4993030;28;20053;-77
2024/01/08 04:19:44;;;;;;;7.70;5.00;;;-3.20;99.90;;;;;;4984739;28;20050;-79
2024/01/08 04:22:31;;;;;;;8.65;5.40;;;-3.20;99.90;;;;;;4982836;28;20046;-81
2024/01/08 04:25:20;;;;;;;5.93;4.75;;;-3.20;99.90;;;;;;4984940;28;20046;-77
2024/01/08 04:28:10;;;;;;;9.18;6.00;;;-3.20;99.90;;;;;;4988023;28;20050;-81
2024/01/08 04:30:57;;;;;;;8.77;5.85;;;-3.30;99.90;;;;;;4987946;28;20046;-80
2024/01/08 04:33:46;;;;;;;6.60;5.18;;;-3.20;99.90;;;;;;4995810;28;20068;-78
2024/01/08 04:36:44;;;;;;;7.47;5.53;;;-3.20;99.90;;;;;;4998297;28;20049;-79
2024/01/08 04:39:32;;;;;;;7.15;5.60;;;-3.30;99.90;;;;;;4990754;28;20039;-79
2024/01/08 04:42:20;;;;;;;7.60;5.82;;;-3.20;99.90;;;;;;4992892;28;20407;-80
2024/01/08 04:45:09;;;;;;;7.53;5.38;;;-3.20;99.90;;;;;;4983728;28;20539;-81
2024/01/08 04:47:57;;;;;;;10.85;6.38;;;-3.20;99.90;;;;;;4984281;28;20046;-80
2024/01/08 04:50:45;;;;;;;7.53;5.80;;;-3.20;99.90;;;;;;4982798;28;20043;-77
2024/01/08 04:53:36;;;;;;;8.00;5.43;;;-3.20;99.90;;;;;;4969085;28;20046;-81
2024/01/08 04:56:25;;;;;;;6.82;5.40;;;-3.30;99.90;;;;;;4988576;28;20045;-77
2024/01/08 04:59:12;;;;;;;6.72;5.03;;;-3.20;99.90;;;;;;5001338;28;20549;-81
2024/01/08 05:02:00;;;;;;;5.78;5.10;;;-3.20;99.90;;;;;;4990567;28;20026;-77
2024/01/08 05:04:50;;;;;;;7.85;5.60;;;-3.30;99.90;;;;;;5004928;28;20050;-81
2024/01/08 05:07:45;;;;;;;6.68;5.22;;;-3.30;99.90;;;;;;4982881;28;20090;-81
2024/01/08 05:10:32;;;;;;;9.10;5.25;;;-3.20;99.90;;;;;;4994114;28;20042;-79
2024/01/08 05:13:19;;;;;;;11.45;6.15;;;-3.30;99.90;;;;;;5002482;28;20041;-79
2024/01/08 05:16:07;;;;;;;7.88;5.38;;;-3.20;99.90;;;;;;4997352;28;20089;-79
2024/01/08 05:18:54;;;;;;;7.45;5.53;;;-3.30;99.90;;;;;;4993825;28;20517;-80
2024/01/08 05:21:42;;;;;;;6.75;5.50;;;-3.30;99.30;;;;;;4982981;28;20114;-77
2024/01/08 05:24:30;;;;;;;8.40;5.70;;;-3.30;99.90;;;;;;4979220;28;20062;-79
2024/01/08 05:27:17;;;;;;;15.18;6.25;;;-3.30;59.10;;;;;;4982745;28;20054;-77
2024/01/08 05:30:04;;;;;;;6.75;5.38;;;-3.30;71.40;;;;;;4982382;28;20426;-76
2024/01/08 05:32:53;;;;;;;5.93;5.35;;;-3.30;99.90;;;;;;4981539;28;20030;-78
2024/01/08 05:35:41;;;;;;;9.15;5.97;;;-3.30;99.90;;;;;;4982162;28;20069;-79
2024/01/08 05:38:32;;;;;;;9.32;5.88;;;-3.30;99.90;;;;;;4980129;28;20034;-77
2024/01/08 05:41:20;;;;;;;7.65;5.75;;;-3.20;99.90;;;;;;4982630;28;20156;-78
2024/01/08 05:44:08;;;;;;;7.28;5.07;;;-3.30;99.90;;;;;;4968077;28;20057;-78
2024/01/08 05:46:56;;;;;;;10.38;6.43;;;-3.30;99.90;;;;;;4982140;28;20038;-78
2024/01/08 05:49:44;;;;;;;8.77;5.80;;;-3.30;99.90;;;;;;4978036;28;20129;-78
2024/01/08 05:52:39;;;;;;;9.43;6.38;;;-3.30;99.90;;;;;;4974984;28;20047;-78
2024/01/08 05:55:29;;;;;;;10.10;6.22;;;-3.30;99.90;;;;;;4972916;28;20045;-79
2024/01/08 05:58:16;;;;;;;10.88;7.22;;;-3.30;99.90;;;;;;4969061;28;20046;-80
2024/01/08 06:01:04;;;;;;;7.93;6.00;;;-3.30;99.90;;;;;;4992208;28;20042;-79
2024/01/08 06:03:54;;;;;;;6.57;5.35;;;-3.30;99.90;;;;;;4981659;28;20043;-78
2024/01/08 06:06:42;;;;;;;7.45;5.85;;;-3.30;99.90;;;;;;4979453;28;20047;-76
2024/01/08 06:09:32;;;;;;;9.75;6.35;;;-3.30;99.90;;;;;;4989710;28;20504;-81
2024/01/08 06:12:20;;;;;;;7.57;6.50;;;-3.40;99.90;;;;;;4993696;28;20060;-80
2024/01/08 06:15:08;;;;;;;8.38;5.80;;;-3.40;99.90;;;;;;4979675;28;20196;-81
2024/01/08 06:17:56;;;;;;;8.95;6.60;;;-3.40;99.90;;;;;;4986866;28;20042;-80
2024/01/08 06:20:44;;;;;;;8.07;6.20;;;-3.40;99.90;;;;;;4987335;28;20136;-78
2024/01/08 06:23:34;;;;;;;8.20;6.18;;;-3.40;99.90;;;;;;4992589;28;20042;-78
2024/01/08 06:26:21;;;;;;;9.90;6.30;;;-3.40;99.90;;;;;;4965003;28;20050;-78
2024/01/08 06:29:11;;;;;;;8.15;6.55;;;-3.40;99.90;;;;;;4981357;28;20172;-79
2024/01/08 06:31:59;;;;;;;9.95;6.40;;;-3.40;99.90;;;;;;4989576;28;20068;-81
2024/01/08 06:34:47;;;;;;;11.20;6.30;;;-3.40;99.90;;;;;;4980917;28;20042;-80
2024/01/08 06:37:36;;;;;;;9.55;5.80;;;-3.40;99.90;;;;;;4980119;28;20066;-81
2024/01/08 06:40:23;;;;;;;16.52;6.88;;;-3.40;99.90;;;;;;4985874;28;20053;-79
2024/01/08 06:43:11;;;;;;;12.35;6.20;;;-3.40;77.80;;;;;;4979848;28;20680;-80
2024/01/08 06:45:58;;;;;;;10.35;6.85;;;-3.50;99.90;;;;;;4976624;28;20133;-79
2024/01/08 06:48:48;;;;;;;9.10;6.00;;;-3.50;90.00;;;;;;4974854;28;20045;-79
2024/01/08 06:51:40;;;;;;;11.05;5.90;;;-3.50;32.80;;;;;;4989181;28;20046;-78
2024/01/08 06:54:27;;;;;;;6.88;5.60;;;-3.50;1.00;;;;;;4989173;28;20085;-80
2024/01/08 06:57:15;;;;;;;12.15;6.32;;;-3.60;1.00;;;;;;4984210;28;20046;-79
2024/01/08 07:00:04;;;;;;;8.35;5.57;;;-3.60;1.00;;;;;;4988494;28;20152;-81
2024/01/08 07:02:53;;;;;;;7.25;5.32;;;-3.60;1.00;;;;;;4987854;28;20038;-81
2024/01/08 07:05:41;;;;;;;7.07;5.32;;;-3.60;1.00;;;;;;4987369;28;20483;-81
2024/01/08 07:08:43;;;;;;;7.80;5.63;;;-3.60;1.00;;;;;;4984039;28;20066;-79
2024/01/08 07:11:33;;;;;;;9.73;6.38;;;-3.60;1.00;;;;;;4977233;28;20039;-79
2024/01/08 07:14:20;;;;;;;8.35;6.22;;;-3.60;1.00;;;;;;4981267;28;20054;-78
2024/01/08 07:17:08;;;;;;;10.45;5.85;;;-3.50;1.00;;;;;;4982945;28;20047;-81
2024/01/08 07:19:55;;;;;;;7.72;5.43;;;-3.60;1.00;;;;;;4981806;28;20523;-79
2024/01/08 07:22:43;;;;;;;10.02;6.00;;;-3.60;1.00;;;;;;4978443;28;20045;-78
2024/01/08 07:25:38;;;;;;;8.75;6.47;;;-3.60;1.00;;;;;;4984179;28;20197;-81
2024/01/08 07:28:27;;;;;;;12.43;6.07;;;-3.50;99.90;;;;;;4968577;28;20047;-80
2024/01/08 07:31:17;;;;;;;9.10;5.80;;;-3.60;99.90;;;;;;4975736;28;20053;-81
2024/01/08 07:34:04;;;;;;;9.48;6.10;;;-3.50;99.90;;;;;;4976148;28;20137;-82
2024/01/08 07:36:53;;;;;;;8.57;6.07;;;-3.50;99.90;;;;;;4979616;28;20045;-78
2024/01/08 07:39:40;;;;;;;8.65;5.57;;;-3.50;99.90;;;;;;4988975;28;20102;-80
2024/01/08 07:42:28;;;;;;;11.10;6.90;;;-3.60;99.90;;;;;;4973833;28;20069;-80
2024/01/08 07:45:16;;;;;;;10.35;6.70;;;-3.60;99.90;;;;;;4979763;28;20144;-79
2024/01/08 07:48:04;;;;;;;8.90;6.35;;;-3.60;99.90;;;;;;4978665;28;20455;-79
2024/01/08 07:50:53;;;;;;;8.27;5.97;;;-3.60;99.90;;;;;;4989328;28;20163;-81
2024/01/08 07:53:41;;;;;;;12.07;6.50;;;-3.50;99.90;;;;;;4979370;28;20038;-80
2024/01/08 07:56:36;;;;;;;10.07;6.70;;;-3.50;99.90;;;;;;4998287;28;20082;-81
2024/01/08 07:59:38;;;;;;;9.48;6.25;;;-3.50;99.90;;;;;;4988242;28;20038;-78
2024/01/08 08:02:26;;;;;;;11.45;6.55;;;-3.50;99.90;;;;;;4983517;28;20043;-79
2024/01/08 08:05:19;;;;;;;8.85;6.25;;;-3.50;99.90;;;;;;4978827;28;20046;-79
2024/01/08 08:08:13;;;;;;;12.02;6.65;;;-3.50;99.90;;;;;;4986045;28;20046;-80
2024/01/08 08:11:09;;;;;;;9.88;6.55;;;-3.50;99.90;;;;;;4992144;28;20079;-79
2024/01/08 08:13:59;;;;;;;10.50;5.97;;;-3.50;99.90;;;;;;4985595;28;20042;-79
2024/01/08 08:16:47;;;;;;;9.52;6.30;;;-3.50;99.90;;;;;;4980882;28;20042;-79
2024/01/08 08:19:45;;;;;;;9.48;6.68;;;-3.50;99.90;;;;;;4984944;28;20065;-79
2024/01/08 08:22:34;;;;;;;8.48;5.97;;;-3.50;99.90;;;;;;4995695;28;20053;-81
2024/01/08 08:25:27;;;;;;;12.88;6.40;;;-3.50;99.90;;;;;;4971420;28;20076;-78
2024/01/08 08:28:15;;;;;;;12.73;6.47;;;-3.50;99.90;;;;;;4988463;28;20046;-78
2024/01/08 08:31:03;;;;;;;9.07;5.75;;;-3.50;99.90;;;;;;4978478;28;20046;-80
2024/01/08 08:33:51;;;;;;;9.80;6.55;;;-3.50;99.90;;;;;;4972885;28;20558;-79
2024/01/08 08:36:41;;;;;;;13.70;8.10;;;-3.40;99.90;;;;;;4983795;28;20125;-78
2024/01/08 08:39:29;;;;;;;10.52;7.03;;;-3.40;99.90;;;;;;4993599;28;20093;-80
2024/01/08 08:42:17;;;;;;;12.40;7.85;;;-3.40;99.90;;;;;;4978411;28;20049;-81
2024/01/08 08:45:06;;;;;;;10.43;6.70;;;-3.40;99.90;;;;;;4979448;28;20103;-77
2024/01/08 08:47:54;;;;;;;7.85;6.60;;;-3.40;99.90;;;;;;4983428;28;20145;-77
2024/01/08 08:50:47;;;;;;;10.52;6.50;;;-3.30;99.90;;;;;;4979601;28;20085;-78
2024/01/08 08:53:35;;;;;;;10.80;6.78;;;-3.30;99.90;;;;;;4984236;28;20035;-79
2024/01/08 08:56:34;;;;;;;10.07;6.38;;;-3.30;99.90;;;;;;4987417;28;20050;-82
2024/01/08 08:59:22;;;;;;;8.90;6.18;;;-3.30;55.40;;;;;;4984108;28;20146;-77
2024/01/08 09:02:09;;;;;;;9.13;6.28;;;-3.30;38.80;;;;;;4979497;28;20038;-78
2024/01/08 09:04:58;;;;;;;10.20;5.85;;;-3.40;1.00;;;;;;4973803;28;20047;-78
2024/01/08 09:07:45;;;;;;;12.50;7.00;;;-3.40;1.00;;;;;;4969226;28;20053;-75
2024/01/08 09:10:35;;;;;;;9.85;6.13;;;-3.40;1.00;;;;;;4973361;28;20043;-76
2024/01/08 09:13:28;;;;;;;10.60;6.85;;;-3.30;1.00;;;;;;4973105;28;20077;-77
2024/01/08 09:16:16;;;;;;;11.00;6.72;;;-3.20;1.00;;;;;;4982038;28;20046;-74
2024/01/08 09:19:05;;;;;;;11.88;6.90;;;-3.10;1.00;;;;;;4973256;28;20051;-77
2024/01/08 09:21:53;;;;;;;10.95;6.50;;;-3.00;1.00;;;;;;4966311;28;20162;-78
2024/01/08 09:24:40;;;;;;;8.82;6.43;;;-2.90;1.00;;;;;;4975458;28;20819;-76
2024/01/08 09:27:28;;;;;;;8.85;6.13;;;-2.90;1.00;;;;;;4985412;28;20046;-78
2024/01/08 09:30:19;;;;;;;9.43;6.30;;;-2.90;1.00;;;;;;4988445;28;20046;-79
2024/01/08 09:33:06;;;;;;;6.50;5.35;;;-2.90;1.00;;;;;;4974059;28;20377;-75
2024/01/08 09:35:55;;;;;;;10.23;6.68;;;-2.90;99.90;;;;;;4972850;28;20049;-76
2024/01/08 09:38:46;;;;;;;9.43;5.90;;;-2.90;99.90;;;;;;4978822;28;20046;-77
2024/01/08 09:41:40;;;;;;;9.02;6.57;;;-2.90;99.90;;;;;;4968141;28;20034;-78
2024/01/08 09:44:31;;;;;;;10.05;6.90;;;-2.90;99.90;;;;;;4975510;28;20047;-80
2024/01/08 09:47:20;;;;;;;7.43;5.40;;;-2.90;99.90;;;;;;4980341;28;20523;-78
2024/01/08 09:50:15;;;;;;;8.00;6.47;;;-3.00;99.90;;;;;;4974697;28;20046;-79
2024/01/08 09:53:03;;;;;;;16.85;6.85;;;-3.00;99.90;;;;;;4960930;28;20038;-78
2024/01/08 09:55:50;;;;;;;9.02;6.25;;;-3.00;99.90;;;;;;4976902;28;20073;-78
2024/01/08 09:58:38;;;;;;;10.07;6.72;;;-3.00;99.90;;;;;;4984840;28;20119;-77
2024/01/08 10:01:26;;;;;;;10.48;6.15;;;-3.00;99.90;;;;;;4984396;28;20050;-78
2024/01/08 10:04:15;;;;;;;10.43;6.82;;;-2.90;99.90;;;;;;4996882;28;20026;-79
2024/01/08 10:07:08;;;;;;;8.43;6.53;;;-2.90;99.90;;;;;;4992918;28;20042;-77
2024/01/08 10:09:56;;;;;;;11.68;6.13;;;-2.80;99.90;;;;;;5001874;28;20030;-78
2024/01/08 10:12:47;;;;;;;8.43;6.13;;;-2.80;99.90;;;;;;5008904;28;20595;-78
2024/01/08 10:15:35;;;;;;;8.18;6.28;;;-2.80;99.90;;;;;;4988715;28;20042;-77
2024/01/08 10:18:27;;;;;;;12.75;7.57;;;-2.80;99.90;;;;;;4988647;28;20070;-76
2024/01/08 10:21:17;;;;;;;10.85;6.93;;;-2.80;99.90;;;;;;4976908;28;20117;-77
2024/01/08 10:24:08;;;;;;;10.30;6.55;;;-3.00;99.90;;;;;;4977497;28;20045;-79
2024/01/08 10:26:59;;;;;;;11.02;6.22;;;-3.00;99.90;;;;;;4972960;28;20046;-77
2024/01/08 10:29:47;;;;;;;9.20;5.82;;;-3.00;99.90;;;;;;4966790;28;20042;-76
2024/01/08 10:32:37;;;;;;;10.02;6.38;;;-3.00;99.90;;;;;;4980120;28;20046;-76
2024/01/08 10:35:29;;;;;;;9.25;6.57;;;-3.00;99.90;;;;;;4960900;28;20082;-77
2024/01/08 10:38:55;;;;;;;11.80;6.97;;;-3.00;99.90;;;;;;4976142;28;20053;-81
2024/01/08 10:42:17;;;;;;;15.68;7.50;;;-2.90;99.90;;;;;;4982702;28;20051;-84
2024/01/08 10:45:28;;;;;;;11.75;6.07;;;-2.80;99.90;;;;;;4982701;28;20047;-81
2024/01/08 10:48:24;;;;;;;8.93;6.00;;;-2.80;99.90;;;;;;4975890;28;20058;-79
2024/01/08 10:51:15;;;;;;;9.63;6.25;;;-2.80;99.90;;;;;;4975950;28;20101;-78
2024/01/08 10:54:03;;;;;;;50.50;17.88;;;-2.90;99.90;;;;;;4976146;28;20039;-80
2024/01/08 10:56:57;;;;;;;10.88;7.00;;;-2.80;99.90;;;;;;4984277;28;20118;-80
2024/01/08 10:59:46;;;;;;;8.23;5.97;;;-2.80;99.90;;;;;;4962037;28;20039;-80
2024/01/08 11:02:44;;;;;;;8.27;6.03;;;-2.70;99.90;;;;;;4977468;28;20181;-79
2024/01/08 11:05:33;;;;;;;7.10;5.43;;;-2.70;99.90;;;;;;4967474;28;20511;-79
2024/01/08 11:08:21;;;;;;;7.18;5.97;;;-2.60;99.90;;;;;;4976150;28;20069;-77
2024/01/08 11:14:49;;;;;;;9.93;5.97;;;-2.60;99.90;;;;;;4973023;28;20054;-80
2024/01/08 11:17:58;;;;;;;8.57;6.05;;;-2.50;99.90;;;;;;4989479;28;20042;-78
2024/01/08 11:20:49;;;;;;;8.43;5.68;;;-2.40;99.90;;;;;;4988884;28;20049;-80
2024/01/08 11:23:41;;;;;;;9.95;6.03;;;-2.50;99.90;;;;;;4989957;28;20046;-79
2024/01/08 11:26:39;;;;;;;9.05;6.20;;;-2.50;99.90;;;;;;4991656;28;20416;-80
2024/01/08 11:29:27;;;;;;;8.77;5.85;;;-2.40;99.90;;;;;;4978433;28;20046;-80
2024/01/08 11:32:28;;;;;;;8.98;6.25;;;-2.40;99.90;;;;;;4986159;28;20052;-80
2024/01/08 11:35:26;;;;;;;8.10;6.28;;;-2.40;99.90;;;;;;4986048;28;20481;-80
2024/01/08 11:38:28;;;;;;;10.00;6.15;;;-2.40;99.90;;;;;;4982970;28;20053;-81
2024/01/08 11:41:16;;;;;;;9.70;5.87;;;-2.40;99.90;;;;;;4988962;28;20185;-80
2024/01/08 11:44:04;;;;;;;7.97;5.80;;;-2.40;99.90;;;;;;4986183;28;20050;-80
2024/01/08 11:46:52;;;;;;;10.70;6.57;;;-2.40;99.90;;;;;;4974006;28;20110;-78
2024/01/08 11:49:39;;;;;;;8.57;5.93;;;-2.40;99.90;;;;;;4984389;28;20061;-80
2024/01/08 11:52:29;;;;;;;8.63;6.03;;;-2.20;99.90;;;;;;4987465;28;20057;-79
2024/01/08 11:55:17;;;;;;;7.40;5.53;;;-2.30;99.90;;;;;;4988637;28;20105;-79
2024/01/08 11:58:13;;;;;;;22.65;5.88;;;-2.30;99.90;;;;;;4986204;28;20181;-78
2024/01/08 12:01:16;;;;;;;8.13;5.85;;;-2.30;99.90;;;;;;5001715;28;20097;-77
2024/01/08 12:04:04;;;;;;;10.18;6.55;;;-2.30;99.90;;;;;;4985825;28;20050;-80
2024/01/08 12:07:06;;;;;;;8.77;6.00;;;-2.10;99.90;;;;;;4987087;28;20045;-79
2024/01/08 12:10:06;;;;;;;8.30;6.43;;;-2.10;99.90;;;;;;4984933;28;20046;-80
2024/01/08 12:13:11;;;;;;;7.28;5.53;;;-2.00;99.90;;;;;;4972705;28;20197;-80
2024/01/08 12:16:01;;;;;;;9.73;6.35;;;-2.00;99.90;;;;;;4977886;28;20882;-77
2024/01/08 12:18:49;;;;;;;13.82;6.22;;;-2.20;99.90;;;;;;4978790;28;20410;-76
2024/01/08 12:21:38;;;;;;;9.23;5.95;;;-2.20;99.00;;;;;;4981957;28;20054;-77
2024/01/08 12:24:35;;;;;;;9.43;6.07;;;-2.20;94.40;;;;;;4975203;28;20599;-77
2024/01/08 12:27:57;;;;;;;;;;;;;;;;;;;;;
2024/01/08 12:31:37;;;;;;;11.25;6.63;;;-2.30;95.00;;;;;;4972949;28;20053;-79
2024/01/08 12:35:04;;;;;;;10.02;6.32;;;-2.30;91.90;;;;;;4995265;28;20723;-77
2024/01/08 12:38:30;;;;;;;10.75;6.65;;;-2.30;90.60;;;;;;4971654;28;20049;-81
2024/01/08 12:41:27;;;;;;;11.23;6.07;;;-2.30;71.40;;;;;;4988669;28;20948;-76
2024/01/08 12:44:19;;;;;;;10.85;7.13;;;-2.30;66.80;;;;;;4985202;28;20043;-78
2024/01/08 12:47:11;;;;;;;10.23;6.10;;;-2.20;80.70;;;;;;4989093;28;20177;-77
2024/01/08 12:54:08;;;;;;;8.77;6.53;;;-2.20;64.80;;;;;;4997703;28;20217;-78
2024/01/08 12:57:37;;;;;;;14.27;6.63;;;-2.30;62.70;;;;;;4993283;28;20038;-80
2024/01/08 13:00:52;;;;;;;;;;;;;;;;;;;;;
2024/01/08 13:03:49;;;;;;;8.43;6.20;;;-2.30;75.00;;;;;;5003694;28;20113;-78
2024/01/08 13:07:06;;;;;;;;;;;;;;;;;;;;;
2024/01/08 13:10:46;;;;;;;17.98;9.40;;;-2.20;76.80;;;;;;4984823;28;20097;-78
2024/01/08 13:13:59;;;;;;;11.23;7.25;;;-2.20;62.90;;;;;;4977623;28;20048;-79
2024/01/08 13:16:50;;;;;;;11.18;8.02;;;-2.20;54.80;;;;;;4977852;28;20346;-78
2024/01/08 13:19:41;;;;;;;9.27;6.70;;;-2.20;46.70;;;;;;4981819;28;20039;-77
2024/01/08 13:22:32;;;;;;;9.43;6.22;;;-2.20;52.50;;;;;;4978390;28;20400;-80
2024/01/08 13:25:26;;;;;;;9.60;6.00;;;-2.20;35.60;;;;;;4969356;28;20693;-79
2024/01/08 13:28:22;;;;;;;9.93;6.18;;;-2.30;27.40;;;;;;4987178;28;20500;-77
2024/01/08 13:31:12;;;;;;;11.45;5.80;;;-2.30;43.40;;;;;;4974059;28;20038;-78
2024/01/08 13:34:06;;;;;;;12.30;6.65;;;-2.30;37.50;;;;;;4981603;28;20050;-78
2024/01/08 13:37:08;;;;;;;9.80;6.53;;;-2.20;43.60;;;;;;4975152;28;20039;-80
2024/01/08 13:40:22;;;;;;;;;;;;;;;;;;;;;
2024/01/08 13:43:39;;;;;;;12.38;6.93;;;-2.10;34.50;;;;;;4971842;28;20491;-80
2024/01/08 13:46:49;;;;;;;9.32;6.18;;;-1.90;41.30;;;;;;4966418;28;20058;-81
2024/01/08 13:50:01;;;;;;;10.98;6.43;;;-2.00;13.20;;;;;;4981407;28;20058;-77
2024/01/08 13:52:50;;;;;;;12.27;6.72;;;-1.90;21.90;;;;;;4991044;28;20119;-76
2024/01/08 13:55:41;;;;;;;10.77;6.60;;;-1.90;6.90;;;;;;4990973;28;20042;-77
2024/01/08 13:58:32;;;;;;;9.77;6.20;;;-1.90;8.70;;;;;;4977683;28;20042;-78
2024/01/08 14:01:22;;;;;;;8.52;5.90;;;-1.80;3.50;;;;;;4978037;28;20523;-76
2024/01/08 14:04:11;;;;;;;9.70;6.63;;;-1.80;5.80;;;;;;4971048;28;20038;-76
2024/01/08 14:06:59;;;;;;;11.45;7.28;;;-1.70;7.80;;;;;;4973962;28;20050;-78
2024/01/08 14:09:47;;;;;;;10.10;6.30;;;-1.50;11.50;;;;;;4980478;28;20111;-76
2024/01/08 14:12:38;;;;;;;9.75;6.30;;;-1.60;1.00;;;;;;4983838;28;20042;-76
2024/01/08 14:15:28;;;;;;;6.20;4.53;;;-1.80;1.00;;;;;;4970832;28;20039;-76
2024/01/08 14:18:17;;;;;;;14.18;6.80;;;-1.90;1.00;;;;;;4973531;28;20045;-78
2024/01/08 14:21:05;;;;;;;10.23;6.88;;;-2.00;1.00;;;;;;4971982;28;20053;-77
2024/01/08 14:23:53;;;;;;;9.13;6.45;;;-2.20;1.00;;;;;;4969162;28;20100;-77
2024/01/08 14:26:41;;;;;;;8.77;5.78;;;-2.30;1.00;;;;;;4968847;28;20057;-78
2024/01/08 14:29:29;;;;;;;10.90;6.88;;;-2.30;1.00;;;;;;4989869;28;20038;-78
2024/01/08 14:32:19;;;;;;;10.65;6.85;;;-2.40;1.00;;;;;;4974901;28;20163;-78
2024/01/08 14:35:09;;;;;;;12.38;7.90;;;-2.50;3.50;;;;;;4980658;28;20046;-77
2024/01/08 14:37:57;;;;;;;12.40;7.38;;;-2.40;8.20;;;;;;4983811;28;20062;-77
2024/01/08 14:41:20;;;;;;;9.98;6.40;;;-2.30;8.70;;;;;;4980599;28;20120;-78
2024/01/08 14:44:33;;;;;;;9.85;6.57;;;-2.40;2.50;;;;;;4977669;28;20057;-79
2024/01/08 14:51:28;;;;;;;14.00;8.15;;;-2.50;14.90;;;;;;4970104;28;20122;-79
2024/01/08 14:54:43;;;;;;;23.70;11.55;;;-2.50;26.10;;;;;;5001315;28;20129;-79
2024/01/08 14:57:53;;;;;;;17.60;9.15;;;-2.60;39.10;;;;;;4975182;28;20684;-80
2024/01/08 15:01:05;;;;;;;15.07;8.60;;;-2.60;53.70;;;;;;4988133;28;20130;-79
2024/01/08 15:03:57;;;;;;;;;;;-2.60;78.00;;;;;;4993307;28;20047;-77
2024/01/08 15:06:55;;;;;;;14.80;9.07;;;-2.70;94.40;;;;;;4984142;28;20013;-79
2024/01/08 15:09:47;;;;;;;16.50;8.27;;;-2.70;99.90;;;;;;4989391;28;20046;-78